createdAt,value
2018-08-23T00:00:45.886Z,67.30
2018-08-23T00:03:20.419Z,67.50
2018-08-23T00:05:54.455Z,67.80
2018-08-23T00:08:23.854Z,68.50
2018-08-23T00:10:53.630Z,68.80
2018-08-23T00:13:22.960Z,69.10
2018-08-23T00:15:52.024Z,69.60
2018-08-23T00:18:21.054Z,69.80
2018-08-23T00:20:50.441Z,70.10
2018-08-23T00:23:19.670Z,71.00
2018-08-23T00:25:48.702Z,71.20
2018-08-23T00:28:17.710Z,71.40
2018-08-23T00:30:47.621Z,72.20
2018-08-23T00:33:16.145Z,72.40
2018-08-23T00:35:45.141Z,72.50
2018-08-23T00:38:14.170Z,72.60
2018-08-23T00:40:44.477Z,72.50
2018-08-23T00:43:14.090Z,72.50
2018-08-23T00:45:43.972Z,72.20
2018-08-23T00:48:13.038Z,72.20
2018-08-23T00:50:56.542Z,72.30
2018-08-23T00:53:25.917Z,72.20
2018-08-23T00:56:08.910Z,72.30
2018-08-23T00:58:37.928Z,72.40
2018-08-23T01:01:06.922Z,72.60
2018-08-23T01:03:36.087Z,72.50
2018-08-23T01:06:05.066Z,72.40
2018-08-23T01:08:34.067Z,72.20
2018-08-23T01:11:03.453Z,71.90
2018-08-23T01:13:32.629Z,72.00
2018-08-23T01:16:01.168Z,72.10
2018-08-23T01:18:30.191Z,72.20
2018-08-23T01:20:59.231Z,72.00
2018-08-23T01:23:28.261Z,72.70
2018-08-23T01:25:57.032Z,71.50
2018-08-23T01:28:26.039Z,72.10
2018-08-23T01:30:55.322Z,71.40
2018-08-23T01:33:24.439Z,71.60
2018-08-23T01:35:53.017Z,71.50
2018-08-23T01:38:21.486Z,71.50
2018-08-23T01:40:53.673Z,71.80
2018-08-23T01:43:23.822Z,71.90
2018-08-23T01:45:52.802Z,72.10
2018-08-23T01:48:21.338Z,72.10
2018-08-23T01:50:50.300Z,72.10
2018-08-23T01:53:19.840Z,72.70
2018-08-23T01:55:48.328Z,72.30
2018-08-23T01:58:16.998Z,72.40
2018-08-23T02:00:46.474Z,72.40
2018-08-23T02:03:15.498Z,72.40
2018-08-23T02:05:44.480Z,72.60
2018-08-23T02:08:13.480Z,72.70
2018-08-23T02:10:42.446Z,73.10
2018-08-23T02:13:15.286Z,73.20
2018-08-23T02:15:49.697Z,73.40
2018-08-23T02:18:18.760Z,73.30
2018-08-23T02:20:50.288Z,73.90
2018-08-23T02:23:18.751Z,73.90
2018-08-23T02:25:47.445Z,73.90
2018-08-23T02:28:16.515Z,73.90
2018-08-23T02:30:54.939Z,74.20
2018-08-23T02:33:25.182Z,74.50
2018-08-23T02:36:22.838Z,74.70
2018-08-23T02:39:03.820Z,75.00
2018-08-23T02:41:32.406Z,75.40
2018-08-23T02:44:00.812Z,75.50
2018-08-23T02:46:31.796Z,75.80
2018-08-23T02:49:00.266Z,76.00
2018-08-23T02:51:43.661Z,76.20
2018-08-23T02:54:13.988Z,76.50
2018-08-23T02:56:50.849Z,76.90
2018-08-23T02:59:19.279Z,77.20
2018-08-23T03:01:48.711Z,77.40
2018-08-23T03:04:22.135Z,77.70
2018-08-23T03:06:52.340Z,77.90
2018-08-23T03:09:23.473Z,77.70
2018-08-23T03:11:54.308Z,77.60
2018-08-23T03:14:23.620Z,77.40
2018-08-23T03:17:30.038Z,77.20
2018-08-23T03:20:18.644Z,77.10
2018-08-23T03:22:51.635Z,77.00
2018-08-23T03:25:21.856Z,76.60
2018-08-23T03:27:51.075Z,76.60
2018-08-23T03:30:20.145Z,76.20
2018-08-23T03:32:48.575Z,76.00
2018-08-23T03:35:17.590Z,76.10
2018-08-23T03:37:46.026Z,76.00
2018-08-23T03:40:15.619Z,76.20
2018-08-23T03:42:44.159Z,76.20
2018-08-23T03:45:18.221Z,76.30
2018-08-23T03:47:50.609Z,76.20
2018-08-23T03:50:19.061Z,75.90
2018-08-23T03:52:51.082Z,75.90
2018-08-23T03:55:22.568Z,76.00
2018-08-23T03:57:57.678Z,76.50
2018-08-23T04:00:31.449Z,75.60
2018-08-23T04:03:01.540Z,75.20
2018-08-23T04:05:30.115Z,75.40
2018-08-23T04:07:58.601Z,75.00
2018-08-23T04:10:27.027Z,75.10
2018-08-23T04:12:55.499Z,75.20
2018-08-23T04:15:28.154Z,75.40
2018-08-23T04:17:57.431Z,75.20
2018-08-23T04:20:26.083Z,75.20
2018-08-23T04:22:54.851Z,75.20
2018-08-23T04:25:23.982Z,75.00
2018-08-23T04:27:52.419Z,74.90
2018-08-23T04:30:21.014Z,74.80
2018-08-23T04:32:50.081Z,74.90
2018-08-23T04:35:20.739Z,75.00
2018-08-23T04:37:50.442Z,74.90
2018-08-23T04:40:19.294Z,74.70
2018-08-23T04:42:47.742Z,74.50
2018-08-23T04:45:22.431Z,74.70
2018-08-23T04:47:58.208Z,74.50
2018-08-23T04:50:26.894Z,74.30
2018-08-23T04:52:55.396Z,74.40
2018-08-23T04:55:25.216Z,74.50
2018-08-23T04:57:53.766Z,74.20
2018-08-23T05:00:22.904Z,73.90
2018-08-23T05:02:51.726Z,73.90
2018-08-23T05:05:20.479Z,73.60
2018-08-23T05:07:49.029Z,73.70
2018-08-23T05:10:17.617Z,73.70
2018-08-23T05:12:46.836Z,73.40
2018-08-23T05:15:15.508Z,73.30
2018-08-23T05:17:43.931Z,73.20
2018-08-23T05:20:12.460Z,73.90
2018-08-23T05:22:49.062Z,73.00
2018-08-23T05:25:17.548Z,72.70
2018-08-23T05:28:02.680Z,72.40
2018-08-23T05:30:31.134Z,72.50
2018-08-23T05:33:04.465Z,71.90
2018-08-23T05:35:33.100Z,71.90
2018-08-23T05:38:02.068Z,71.40
2018-08-23T05:40:36.378Z,71.20
2018-08-23T05:43:05.353Z,71.40
2018-08-23T05:45:39.167Z,70.50
2018-08-23T05:48:31.019Z,70.70
2018-08-23T05:51:01.091Z,70.50
2018-08-23T05:53:41.158Z,70.30
2018-08-23T05:56:09.919Z,70.20
2018-08-23T05:58:39.052Z,70.20
2018-08-23T06:01:08.032Z,69.20
2018-08-23T06:03:37.914Z,69.20
2018-08-23T06:06:06.478Z,69.30
2018-08-23T06:08:35.482Z,69.10
2018-08-23T06:11:08.719Z,69.40
2018-08-23T06:13:37.706Z,69.00
2018-08-23T06:16:06.762Z,68.40
2018-08-23T06:18:35.761Z,68.70
2018-08-23T06:21:04.876Z,69.50
2018-08-23T06:24:11.555Z,68.70
2018-08-23T06:26:47.318Z,69.80
2018-08-23T06:29:18.938Z,68.10
2018-08-23T06:32:08.319Z,68.20
2018-08-23T06:34:39.806Z,67.10
2018-08-23T06:37:08.835Z,66.20
2018-08-23T06:39:38.972Z,66.50
2018-08-23T06:42:08.015Z,66.10
2018-08-23T06:44:56.815Z,66.10
2018-08-23T06:47:27.072Z,65.10
2018-08-23T06:49:56.320Z,65.00
2018-08-23T06:52:37.258Z,65.40
2018-08-23T06:55:06.834Z,64.50
2018-08-23T06:57:47.494Z,63.90
2018-08-23T07:00:21.958Z,63.30
2018-08-23T07:02:50.970Z,63.50
2018-08-23T07:05:20.439Z,63.40
2018-08-23T07:07:49.706Z,63.20
2018-08-23T07:10:18.792Z,63.00
2018-08-23T07:12:47.979Z,62.10
2018-08-23T07:15:16.959Z,62.00
2018-08-23T07:17:46.070Z,61.60
2018-08-23T07:20:16.366Z,61.10
2018-08-23T07:22:45.447Z,61.30
2018-08-23T07:25:16.034Z,60.60
2018-08-23T07:27:45.019Z,60.50
2018-08-23T07:30:16.227Z,60.10
2018-08-23T07:32:46.771Z,60.30
2018-08-23T07:35:19.985Z,60.00
2018-08-23T07:37:50.399Z,59.90
2018-08-23T07:40:20.746Z,59.50
2018-08-23T07:42:51.091Z,59.50
2018-08-23T07:45:20.117Z,59.10
2018-08-23T07:47:51.506Z,58.60
2018-08-23T07:50:20.560Z,58.40
2018-08-23T07:52:51.006Z,58.10
2018-08-23T07:55:20.068Z,57.20
2018-08-23T07:57:49.054Z,57.00
2018-08-23T08:00:39.838Z,56.90
2018-08-23T08:03:10.033Z,56.90
2018-08-23T08:05:40.975Z,57.40
2018-08-23T08:08:11.063Z,56.10
2018-08-23T08:10:42.302Z,56.40
2018-08-23T08:13:11.277Z,56.00
2018-08-23T08:15:40.531Z,55.90
2018-08-23T08:18:12.452Z,55.80
2018-08-23T08:20:41.782Z,55.60
2018-08-23T08:23:10.930Z,55.60
2018-08-23T08:25:39.968Z,55.30
2018-08-23T08:28:13.796Z,55.50
2018-08-23T08:30:44.501Z,55.30
2018-08-23T08:33:21.238Z,55.70
2018-08-23T08:35:51.729Z,55.80
2018-08-23T08:38:20.925Z,55.30
2018-08-23T08:40:51.403Z,54.50
2018-08-23T08:43:20.431Z,55.00
2018-08-23T08:45:53.766Z,55.00
2018-08-23T08:48:33.425Z,54.90
2018-08-23T08:51:32.351Z,54.20
2018-08-23T08:54:02.987Z,54.20
2018-08-23T08:56:37.029Z,53.90
2018-08-23T08:59:06.218Z,53.60
2018-08-23T09:01:35.270Z,53.60
2018-08-23T09:04:04.473Z,54.00
2018-08-23T09:06:46.082Z,53.10
2018-08-23T09:09:28.393Z,53.30
2018-08-23T09:11:59.408Z,53.80
2018-08-23T09:14:28.442Z,52.70
2018-08-23T09:16:57.527Z,53.30
2018-08-23T09:19:38.058Z,52.60
2018-08-23T09:22:12.608Z,52.40
2018-08-23T09:24:41.619Z,52.00
2018-08-23T09:27:17.028Z,51.40
2018-08-23T09:29:46.119Z,51.10
2018-08-23T09:32:20.710Z,51.10
2018-08-23T09:34:50.118Z,50.50
2018-08-23T09:37:19.436Z,50.30
2018-08-23T09:39:48.884Z,50.50
2018-08-23T09:42:17.902Z,50.40
2018-08-23T09:44:59.535Z,50.20
2018-08-23T09:47:28.937Z,50.40
2018-08-23T09:49:58.759Z,49.30
2018-08-23T09:52:29.546Z,49.60
2018-08-23T09:54:58.689Z,49.30
2018-08-23T09:57:27.696Z,49.00
2018-08-23T09:59:57.352Z,48.70
2018-08-23T10:02:31.603Z,49.00
2018-08-23T10:05:05.269Z,48.60
2018-08-23T10:07:39.746Z,48.50
2018-08-23T10:10:14.386Z,47.70
2018-08-23T10:12:48.867Z,47.50
2018-08-23T10:15:23.366Z,47.30
2018-08-23T10:17:57.779Z,47.20
2018-08-23T10:20:32.148Z,47.60
2018-08-23T10:23:06.670Z,47.90
2018-08-23T10:25:41.271Z,47.90
2018-08-23T10:28:11.471Z,47.70
2018-08-23T10:30:41.058Z,47.60
2018-08-23T10:33:10.050Z,47.90
2018-08-23T10:35:43.251Z,47.80
2018-08-23T10:38:14.293Z,47.40
2018-08-23T10:40:44.207Z,47.50
2018-08-23T10:43:13.534Z,47.40
2018-08-23T10:45:42.821Z,47.40
2018-08-23T10:48:14.788Z,47.60
2018-08-23T10:50:44.461Z,47.50
2018-08-23T10:53:14.090Z,47.80
2018-08-23T10:55:43.608Z,48.30
2018-08-23T10:58:12.653Z,48.60
2018-08-23T11:00:42.010Z,49.00
2018-08-23T11:03:11.025Z,48.50
2018-08-23T11:05:40.063Z,48.50
2018-08-23T11:08:14.634Z,48.60
2018-08-23T11:10:49.321Z,48.50
2018-08-23T11:13:23.583Z,48.60
2018-08-23T11:15:57.892Z,49.50
2018-08-23T11:18:32.381Z,49.70
2018-08-23T11:21:01.321Z,50.00
2018-08-23T11:23:30.351Z,50.60
2018-08-23T11:25:59.550Z,50.70
2018-08-23T11:28:28.582Z,50.30
2018-08-23T11:31:01.679Z,48.70
2018-08-23T11:33:30.760Z,49.00
2018-08-23T11:35:59.753Z,49.20
2018-08-23T11:38:28.787Z,49.40
2018-08-23T11:40:57.818Z,48.70
2018-08-23T11:43:26.815Z,48.10
2018-08-23T11:45:57.004Z,47.90
2018-08-23T11:48:26.129Z,47.20
2018-08-23T11:50:55.118Z,47.10
2018-08-23T11:53:24.379Z,45.90
2018-08-23T11:55:53.375Z,45.50
2018-08-23T11:58:22.385Z,45.50
2018-08-23T12:00:51.630Z,44.20
2018-08-23T12:03:20.652Z,44.80
2018-08-23T12:05:49.707Z,45.60
2018-08-23T12:08:18.957Z,46.50
2018-08-23T12:10:47.991Z,47.10
2018-08-23T12:13:17.133Z,47.30
2018-08-23T12:15:46.270Z,46.90
2018-08-23T12:18:15.250Z,45.60
2018-08-23T12:20:44.224Z,45.00
2018-08-23T12:23:13.246Z,44.10
2018-08-23T12:25:42.303Z,43.40
2018-08-23T12:29:18.582Z,42.60
2018-08-23T12:31:47.552Z,42.30
2018-08-23T12:34:26.946Z,42.50
2018-08-23T12:37:01.332Z,42.30
2018-08-23T12:39:35.931Z,42.10
2018-08-23T12:42:10.193Z,41.70
2018-08-23T12:44:44.604Z,40.80
2018-08-23T12:47:13.758Z,41.00
2018-08-23T12:49:45.992Z,40.90
2018-08-23T12:52:15.404Z,40.30
2018-08-23T12:54:44.460Z,39.90
2018-08-23T12:57:13.706Z,40.90
2018-08-23T12:59:42.744Z,40.90
2018-08-23T13:02:11.755Z,40.20
2018-08-23T13:04:40.962Z,39.80
2018-08-23T13:07:10.006Z,40.40
2018-08-23T13:09:39.202Z,40.40
2018-08-23T13:12:08.216Z,40.60
2018-08-23T13:14:37.307Z,40.60
2018-08-23T13:17:06.372Z,41.50
2018-08-23T13:19:35.596Z,41.50
2018-08-23T13:22:04.684Z,41.40
2018-08-23T13:24:37.934Z,41.80
2018-08-23T13:27:06.918Z,42.00
2018-08-23T13:29:36.187Z,42.50
2018-08-23T13:32:05.226Z,41.90
2018-08-23T13:34:34.358Z,41.60
2018-08-23T13:37:03.384Z,41.40
2018-08-23T13:39:32.519Z,41.00
2018-08-23T13:42:01.505Z,40.30
2018-08-23T13:44:30.686Z,40.10
2018-08-23T13:46:59.947Z,40.20
2018-08-23T13:49:28.985Z,40.30
2018-08-23T13:51:58.008Z,41.10
2018-08-23T13:54:27.336Z,39.60
2018-08-23T13:56:56.466Z,39.60
2018-08-23T13:59:25.495Z,39.50
2018-08-23T14:01:54.478Z,40.70
2018-08-23T14:04:23.445Z,40.30
2018-08-23T14:06:52.442Z,40.80
2018-08-23T14:09:21.435Z,40.70
2018-08-23T14:11:50.439Z,40.80
2018-08-23T14:14:19.479Z,40.50
2018-08-23T14:16:48.503Z,40.60
2018-08-23T14:19:17.534Z,39.60
2018-08-23T14:21:46.754Z,39.60
2018-08-23T14:24:16.607Z,39.50
2018-08-23T14:26:45.606Z,39.10
2018-08-23T14:29:14.710Z,39.00
2018-08-23T14:31:43.691Z,38.70
2018-08-23T14:34:12.686Z,39.00
2018-08-23T14:36:41.720Z,40.30
2018-08-23T14:39:11.881Z,41.60
2018-08-23T14:41:40.962Z,42.70
2018-08-23T14:44:10.229Z,42.50
2018-08-23T14:46:44.671Z,42.90
2018-08-23T14:49:18.834Z,42.60
2018-08-23T14:51:47.831Z,42.90
2018-08-23T14:54:22.129Z,43.00
2018-08-23T14:56:56.608Z,43.00
2018-08-23T14:59:25.665Z,43.30
2018-08-23T15:01:54.652Z,43.50
2018-08-23T15:04:23.672Z,44.00
2018-08-23T15:06:52.876Z,44.30
2018-08-23T15:09:25.247Z,45.00
2018-08-23T15:11:54.406Z,45.10
2018-08-23T15:14:23.389Z,45.80
2018-08-23T15:16:52.415Z,45.40
2018-08-23T15:19:21.378Z,46.00
2018-08-23T15:21:50.481Z,46.10
2018-08-23T15:24:19.482Z,46.20
2018-08-23T15:26:48.846Z,48.10
2018-08-23T15:29:17.856Z,51.60
2018-08-23T15:31:46.908Z,53.00
2018-08-23T15:34:16.011Z,53.90
2018-08-23T15:36:45.068Z,54.60
2018-08-23T15:39:15.170Z,55.50
2018-08-23T15:41:44.273Z,57.10
2018-08-23T15:44:14.258Z,57.80
2018-08-23T15:46:45.349Z,58.60
2018-08-23T15:49:14.754Z,59.20
2018-08-23T15:51:44.190Z,59.40
2018-08-23T15:54:16.596Z,59.40
2018-08-23T15:56:45.648Z,58.90
2018-08-23T15:59:14.720Z,58.50
2018-08-23T16:01:43.856Z,56.90
2018-08-23T16:04:12.870Z,56.60
2018-08-23T16:06:41.861Z,55.80
2018-08-23T16:09:12.277Z,55.50
2018-08-23T16:11:41.342Z,55.00
2018-08-23T16:14:10.368Z,55.10
2018-08-23T16:16:44.631Z,54.90
2018-08-23T16:19:18.888Z,55.30
2018-08-23T16:21:53.294Z,54.80
2018-08-23T16:24:22.302Z,54.70
2018-08-23T16:26:56.631Z,55.50
2018-08-23T16:29:25.641Z,55.90
2018-08-23T16:31:55.297Z,55.80
2018-08-23T16:34:24.455Z,55.80
2018-08-23T16:36:53.471Z,55.80
2018-08-23T16:39:22.532Z,56.30
2018-08-23T16:41:51.569Z,56.70
2018-08-23T16:44:20.640Z,56.70
2018-08-23T16:46:49.663Z,57.10
2018-08-23T16:49:18.686Z,58.30
2018-08-23T16:51:47.784Z,57.90
2018-08-23T16:54:16.818Z,58.30
2018-08-23T16:56:45.846Z,58.50
2018-08-23T16:59:14.817Z,58.50
2018-08-23T17:01:43.833Z,58.90
2018-08-23T17:04:12.879Z,59.20
2018-08-23T17:06:42.317Z,59.70
2018-08-23T17:09:11.392Z,59.80
2018-08-23T17:11:40.504Z,59.70
2018-08-23T17:14:11.100Z,59.80
2018-08-23T17:16:45.378Z,59.70
2018-08-23T17:19:14.488Z,59.90
2018-08-23T17:21:43.506Z,60.40
2018-08-23T17:24:12.538Z,60.70
2018-08-23T17:26:41.723Z,61.10
2018-08-23T17:29:10.750Z,61.30
2018-08-23T17:31:39.878Z,61.70
2018-08-23T17:34:08.895Z,62.20
2018-08-23T17:36:37.922Z,62.90
2018-08-23T17:39:07.781Z,63.10
2018-08-23T17:41:36.798Z,63.00
2018-08-23T17:44:05.939Z,61.80
2018-08-23T17:46:36.576Z,62.00
2018-08-23T17:49:06.502Z,61.50
2018-08-23T17:51:35.469Z,61.60
2018-08-23T17:54:04.468Z,62.10
2018-08-23T17:56:33.599Z,60.20
2018-08-23T17:59:02.573Z,59.90
2018-08-23T18:01:31.678Z,60.10
2018-08-23T18:04:00.752Z,60.50
2018-08-23T18:06:29.804Z,60.50
2018-08-23T18:08:58.967Z,60.60
2018-08-23T18:11:28.227Z,60.80
2018-08-23T18:13:57.278Z,61.30
2018-08-23T18:16:31.620Z,61.40
2018-08-23T18:19:00.816Z,61.20
2018-08-23T18:21:29.820Z,61.70
2018-08-23T18:23:58.918Z,61.30
2018-08-23T18:26:27.876Z,60.60
2018-08-23T18:28:57.275Z,60.90
2018-08-23T18:31:26.289Z,60.90
2018-08-23T18:33:55.352Z,60.30
2018-08-23T18:36:24.355Z,60.40
2018-08-23T18:38:53.378Z,60.00
2018-08-23T18:41:22.397Z,60.40
2018-08-23T18:43:51.747Z,61.30
2018-08-23T18:46:20.787Z,62.10
2018-08-23T18:48:49.823Z,61.60
2018-08-23T18:51:18.855Z,61.30
2018-08-23T18:53:47.937Z,61.20
2018-08-23T18:56:17.161Z,60.60
2018-08-23T18:58:46.126Z,60.40
2018-08-23T19:01:15.149Z,60.50
2018-08-23T19:03:44.189Z,60.10
2018-08-23T19:06:13.215Z,59.70
2018-08-23T19:08:42.193Z,59.90
2018-08-23T19:11:11.261Z,59.80
2018-08-23T19:13:40.344Z,60.00
2018-08-23T19:16:14.705Z,60.00
2018-08-23T19:18:43.963Z,59.70
2018-08-23T19:21:12.964Z,59.90
2018-08-23T19:23:41.982Z,60.10
2018-08-23T19:26:11.374Z,60.50
2018-08-23T19:28:40.495Z,61.00
2018-08-23T19:31:09.533Z,61.50
2018-08-23T19:33:38.636Z,62.00
2018-08-23T19:36:07.866Z,62.60
2018-08-23T19:38:36.887Z,62.80
2018-08-23T19:41:05.844Z,63.00
2018-08-23T19:43:35.200Z,63.20
2018-08-23T19:46:09.767Z,63.30
2018-08-23T19:48:38.918Z,63.30
2018-08-23T19:51:08.323Z,63.30
2018-08-23T19:53:37.680Z,63.50
2018-08-23T19:56:06.721Z,63.80
2018-08-23T19:58:35.988Z,63.90
2018-08-23T20:01:05.166Z,63.90
2018-08-23T20:03:34.246Z,64.60
2018-08-23T20:06:03.290Z,64.80
2018-08-23T20:08:32.302Z,65.80
2018-08-23T20:11:01.545Z,66.00
2018-08-23T20:13:30.610Z,66.40
2018-08-23T20:15:59.688Z,66.90
2018-08-23T20:18:28.724Z,67.00
2018-08-23T20:20:57.812Z,67.10
2018-08-23T20:23:26.866Z,67.50
2018-08-23T20:25:55.906Z,67.60
2018-08-23T20:28:24.905Z,67.80
2018-08-23T20:30:53.936Z,68.30
2018-08-23T20:33:23.067Z,68.80
2018-08-23T20:35:52.147Z,68.70
2018-08-23T20:38:21.250Z,68.20
2018-08-23T20:40:49.734Z,67.90
2018-08-23T20:43:18.739Z,68.10
2018-08-23T20:45:47.763Z,68.10
2018-08-23T20:48:16.815Z,68.00
2018-08-23T20:50:45.833Z,68.10
2018-08-23T20:53:14.833Z,68.10
2018-08-23T20:55:43.876Z,68.60
2018-08-23T20:58:13.138Z,68.60
2018-08-23T21:00:42.287Z,68.70
2018-08-23T21:03:11.603Z,68.90
2018-08-23T21:05:40.065Z,68.70
2018-08-23T21:08:09.126Z,68.40
2018-08-23T21:10:38.229Z,67.90
2018-08-23T21:13:07.363Z,68.50
2018-08-23T21:15:38.687Z,68.10
2018-08-23T21:18:09.775Z,67.90
2018-08-23T21:20:39.085Z,68.00
2018-08-23T21:23:08.214Z,68.00
2018-08-23T21:25:37.393Z,68.10
2018-08-23T21:28:05.914Z,68.00
2018-08-23T21:30:34.949Z,68.30
2018-08-23T21:33:03.978Z,68.30
2018-08-23T21:35:32.960Z,68.30
2018-08-23T21:38:01.944Z,68.30
2018-08-23T21:40:30.380Z,68.30
2018-08-23T21:42:59.452Z,68.40
2018-08-23T21:45:28.516Z,68.60
2018-08-23T21:47:57.139Z,68.30
2018-08-23T21:50:25.588Z,68.50
2018-08-23T21:52:54.019Z,68.30
2018-08-23T21:55:26.741Z,68.10
2018-08-23T21:57:55.289Z,68.20
2018-08-23T22:00:23.751Z,68.00
2018-08-23T22:02:52.164Z,68.20
2018-08-23T22:05:20.943Z,67.90
2018-08-23T22:07:49.430Z,68.50
2018-08-23T22:10:17.858Z,68.60
2018-08-23T22:12:46.856Z,68.90
2018-08-23T22:15:15.356Z,68.90
2018-08-23T22:17:44.514Z,68.90
2018-08-23T22:20:13.288Z,69.40
2018-08-23T22:22:41.846Z,69.60
2018-08-23T22:25:11.168Z,69.70
2018-08-23T22:27:39.737Z,70.00
2018-08-23T22:30:08.206Z,70.40
2018-08-23T22:32:38.349Z,70.50
2018-08-23T22:35:06.790Z,70.90
2018-08-23T22:37:35.339Z,71.60
2018-08-23T22:40:03.852Z,70.70
2018-08-23T22:42:32.645Z,70.90
2018-08-23T22:45:01.216Z,70.80
2018-08-23T22:47:30.407Z,70.70
2018-08-23T22:49:58.954Z,70.80
2018-08-23T22:52:27.704Z,71.20
2018-08-23T22:54:56.282Z,71.20
2018-08-23T22:57:24.850Z,71.40
2018-08-23T22:59:53.782Z,71.90
2018-08-23T23:02:34.410Z,72.00
2018-08-23T23:05:02.927Z,72.20
2018-08-23T23:07:31.638Z,72.10
2018-08-23T23:10:00.097Z,72.40
2018-08-23T23:12:28.755Z,72.70
2018-08-23T23:14:57.183Z,72.70
2018-08-23T23:17:25.597Z,73.60
2018-08-23T23:19:54.042Z,72.90
2018-08-23T23:22:22.454Z,73.10
2018-08-23T23:24:56.273Z,73.30
2018-08-23T23:27:24.778Z,73.40
2018-08-23T23:29:53.330Z,73.70
2018-08-23T23:32:21.760Z,74.00
2018-08-23T23:34:50.257Z,74.20
2018-08-23T23:37:18.674Z,74.40
2018-08-23T23:39:47.144Z,74.50
2018-08-23T23:42:15.663Z,74.60
2018-08-23T23:44:44.167Z,74.60
2018-08-23T23:47:12.821Z,74.80
2018-08-23T23:49:41.353Z,75.20
2018-08-23T23:52:09.852Z,75.40
2018-08-23T23:54:38.346Z,75.70
2018-08-23T23:57:06.935Z,76.00
2018-08-23T23:59:35.678Z,76.40
